sensor_id;sensor_type;location;lat;lon;timestamp;P1;durP1;ratioP1;P2;durP2;ratioP2
67065;SDS011;53978;43.846;25.952;2022-12-11T04:18:27;8.43;;;2.05;;
67065;SDS011;53978;43.846;25.952;2022-12-11T04:21:11;6.78;;;2.15;;
67065;SDS011;53978;43.846;25.952;2022-12-11T04:23:55;4.27;;;2.17;;
67065;SDS011;53978;43.846;25.952;2022-12-11T04:26:46;5.38;;;1.83;;
67065;SDS011;53978;43.846;25.952;2022-12-11T04:29:12;5.95;;;1.85;;
67065;SDS011;53978;43.846;25.952;2022-12-11T04:31:44;7.90;;;1.90;;
67065;SDS011;53978;43.846;25.952;2022-12-11T04:34:12;5.55;;;1.75;;
67065;SDS011;53978;43.846;25.952;2022-12-11T04:36:37;6.38;;;1.90;;
67065;SDS011;53978;43.846;25.952;2022-12-11T04:39:04;8.35;;;1.60;;
67065;SDS011;53978;43.846;25.952;2022-12-11T04:41:30;6.65;;;1.83;;
67065;SDS011;53978;43.846;25.952;2022-12-11T04:43:55;7.72;;;1.80;;
67065;SDS011;53978;43.846;25.952;2022-12-11T04:46:23;7.05;;;1.60;;
67065;SDS011;53978;43.846;25.952;2022-12-11T04:48:49;4.78;;;2.00;;
67065;SDS011;53978;43.846;25.952;2022-12-11T04:51:18;3.75;;;1.85;;
67065;SDS011;53978;43.846;25.952;2022-12-11T04:53:44;10.38;;;1.83;;
67065;SDS011;53978;43.846;25.952;2022-12-11T04:56:11;7.35;;;1.55;;
67065;SDS011;53978;43.846;25.952;2022-12-11T04:58:38;4.82;;;1.60;;
67065;SDS011;53978;43.846;25.952;2022-12-11T05:01:07;3.60;;;1.65;;
67065;SDS011;53978;43.846;25.952;2022-12-11T05:03:33;6.20;;;1.70;;
67065;SDS011;53978;43.846;25.952;2022-12-11T05:05:59;8.32;;;1.70;;
67065;SDS011;53978;43.846;25.952;2022-12-11T05:08:24;4.30;;;1.42;;
67065;SDS011;53978;43.846;25.952;2022-12-11T05:11:00;4.53;;;1.67;;
67065;SDS011;53978;43.846;25.952;2022-12-11T05:13:27;6.57;;;1.92;;
67065;SDS011;53978;43.846;25.952;2022-12-11T05:15:53;4.35;;;1.48;;
67065;SDS011;53978;43.846;25.952;2022-12-11T05:18:19;3.42;;;1.50;;
67065;SDS011;53978;43.846;25.952;2022-12-11T05:20:44;2.67;;;1.33;;
67065;SDS011;53978;43.846;25.952;2022-12-11T05:23:10;3.50;;;1.60;;
67065;SDS011;53978;43.846;25.952;2022-12-11T05:25:35;5.65;;;1.80;;
67065;SDS011;53978;43.846;25.952;2022-12-11T05:28:01;6.55;;;1.58;;
67065;SDS011;53978;43.846;25.952;2022-12-11T05:30:26;4.10;;;1.30;;
67065;SDS011;53978;43.846;25.952;2022-12-11T05:32:52;5.38;;;1.60;;
67065;SDS011;53978;43.846;25.952;2022-12-11T05:35:19;2.58;;;1.48;;
67065;SDS011;53978;43.846;25.952;2022-12-11T05:37:45;7.53;;;1.67;;
67065;SDS011;53978;43.846;25.952;2022-12-11T05:40:10;3.42;;;1.48;;
67065;SDS011;53978;43.846;25.952;2022-12-11T05:42:36;5.85;;;1.45;;
67065;SDS011;53978;43.846;25.952;2022-12-11T05:45:04;6.25;;;2.00;;
67065;SDS011;53978;43.846;25.952;2022-12-11T05:47:30;4.93;;;1.60;;
67065;SDS011;53978;43.846;25.952;2022-12-11T05:49:55;5.75;;;1.92;;
67065;SDS011;53978;43.846;25.952;2022-12-11T05:52:21;5.47;;;2.53;;
67065;SDS011;53978;43.846;25.952;2022-12-11T05:54:51;5.22;;;2.35;;
67065;SDS011;53978;43.846;25.952;2022-12-11T05:57:17;6.82;;;2.22;;
67065;SDS011;53978;43.846;25.952;2022-12-11T05:59:45;4.57;;;2.13;;
67065;SDS011;53978;43.846;25.952;2022-12-11T06:02:11;5.95;;;2.10;;
67065;SDS011;53978;43.846;25.952;2022-12-11T06:04:37;6.32;;;2.13;;
67065;SDS011;53978;43.846;25.952;2022-12-11T06:07:02;5.57;;;2.08;;
67065;SDS011;53978;43.846;25.952;2022-12-11T06:09:27;5.95;;;2.05;;
67065;SDS011;53978;43.846;25.952;2022-12-11T06:11:53;5.18;;;2.20;;
67065;SDS011;53978;43.846;25.952;2022-12-11T06:14:18;5.63;;;2.28;;
67065;SDS011;53978;43.846;25.952;2022-12-11T06:16:44;6.78;;;2.13;;
67065;SDS011;53978;43.846;25.952;2022-12-11T06:19:15;7.15;;;2.05;;
67065;SDS011;53978;43.846;25.952;2022-12-11T06:21:42;5.50;;;2.28;;
67065;SDS011;53978;43.846;25.952;2022-12-11T06:24:10;6.20;;;2.33;;
67065;SDS011;53978;43.846;25.952;2022-12-11T06:26:38;6.13;;;2.13;;
67065;SDS011;53978;43.846;25.952;2022-12-11T06:29:04;4.03;;;1.88;;
67065;SDS011;53978;43.846;25.952;2022-12-11T06:31:32;4.38;;;1.98;;
67065;SDS011;53978;43.846;25.952;2022-12-11T06:33:57;9.85;;;2.10;;
67065;SDS011;53978;43.846;25.952;2022-12-11T06:36:25;6.65;;;2.13;;
67065;SDS011;53978;43.846;25.952;2022-12-11T06:38:51;5.40;;;1.88;;
67065;SDS011;53978;43.846;25.952;2022-12-11T06:41:19;6.13;;;2.00;;
67065;SDS011;53978;43.846;25.952;2022-12-11T06:43:44;4.57;;;2.42;;
67065;SDS011;53978;43.846;25.952;2022-12-11T06:46:11;6.70;;;2.20;;
67065;SDS011;53978;43.846;25.952;2022-12-11T06:48:38;8.45;;;2.00;;
67065;SDS011;53978;43.846;25.952;2022-12-11T06:51:12;5.55;;;2.05;;
67065;SDS011;53978;43.846;25.952;2022-12-11T06:53:42;5.68;;;2.40;;
67065;SDS011;53978;43.846;25.952;2022-12-11T06:56:11;7.97;;;2.20;;
67065;SDS011;53978;43.846;25.952;2022-12-11T06:58:41;4.72;;;1.80;;
67065;SDS011;53978;43.846;25.952;2022-12-11T07:01:17;5.38;;;2.00;;
67065;SDS011;53978;43.846;25.952;2022-12-11T07:03:54;6.10;;;2.03;;
67065;SDS011;53978;43.846;25.952;2022-12-11T07:06:21;4.57;;;1.95;;
67065;SDS011;53978;43.846;25.952;2022-12-11T07:08:55;3.92;;;1.98;;
67065;SDS011;53978;43.846;25.952;2022-12-11T07:11:20;4.90;;;1.92;;
67065;SDS011;53978;43.846;25.952;2022-12-11T07:13:46;3.20;;;1.85;;
67065;SDS011;53978;43.846;25.952;2022-12-11T07:16:13;7.72;;;2.55;;
67065;SDS011;53978;43.846;25.952;2022-12-11T07:18:40;5.95;;;2.53;;
67065;SDS011;53978;43.846;25.952;2022-12-11T07:21:07;8.65;;;2.50;;
67065;SDS011;53978;43.846;25.952;2022-12-11T07:23:35;5.68;;;2.40;;
67065;SDS011;53978;43.846;25.952;2022-12-11T07:26:03;4.30;;;2.10;;
67065;SDS011;53978;43.846;25.952;2022-12-11T07:28:29;6.68;;;2.17;;
67065;SDS011;53978;43.846;25.952;2022-12-11T07:30:55;4.63;;;2.40;;
67065;SDS011;53978;43.846;25.952;2022-12-11T07:33:23;5.85;;;2.42;;
67065;SDS011;53978;43.846;25.952;2022-12-11T07:35:48;7.90;;;2.22;;
67065;SDS011;53978;43.846;25.952;2022-12-11T07:38:14;8.10;;;1.85;;
67065;SDS011;53978;43.846;25.952;2022-12-11T07:40:39;3.28;;;1.70;;
67065;SDS011;53978;43.846;25.952;2022-12-11T07:43:07;3.17;;;1.90;;
67065;SDS011;53978;43.846;25.952;2022-12-11T07:45:35;6.28;;;1.90;;
67065;SDS011;53978;43.846;25.952;2022-12-11T07:48:00;7.93;;;2.67;;
67065;SDS011;53978;43.846;25.952;2022-12-11T07:50:25;6.50;;;2.53;;
67065;SDS011;53978;43.846;25.952;2022-12-11T07:52:51;6.30;;;2.47;;
67065;SDS011;53978;43.846;25.952;2022-12-11T07:55:16;7.72;;;2.45;;
67065;SDS011;53978;43.846;25.952;2022-12-11T07:57:44;5.93;;;2.03;;
67065;SDS011;53978;43.846;25.952;2022-12-11T08:00:10;5.18;;;2.40;;
67065;SDS011;53978;43.846;25.952;2022-12-11T08:02:36;5.18;;;2.80;;
67065;SDS011;53978;43.846;25.952;2022-12-11T08:05:04;4.78;;;2.50;;
67065;SDS011;53978;43.846;25.952;2022-12-11T08:07:32;5.57;;;2.65;;
67065;SDS011;53978;43.846;25.952;2022-12-11T08:09:59;8.32;;;2.17;;
67065;SDS011;53978;43.846;25.952;2022-12-11T08:12:24;8.93;;;2.60;;
67065;SDS011;53978;43.846;25.952;2022-12-11T08:14:50;8.77;;;2.63;;
67065;SDS011;53978;43.846;25.952;2022-12-11T08:17:23;8.35;;;2.65;;
67065;SDS011;53978;43.846;25.952;2022-12-11T08:19:48;5.50;;;2.22;;
67065;SDS011;53978;43.846;25.952;2022-12-11T08:22:14;4.85;;;2.42;;
67065;SDS011;53978;43.846;25.952;2022-12-11T08:24:39;7.72;;;2.90;;
67065;SDS011;53978;43.846;25.952;2022-12-11T08:27:07;6.90;;;2.53;;
67065;SDS011;53978;43.846;25.952;2022-12-11T08:29:35;7.75;;;2.13;;
67065;SDS011;53978;43.846;25.952;2022-12-11T08:32:03;7.55;;;2.55;;
67065;SDS011;53978;43.846;25.952;2022-12-11T08:34:29;9.75;;;1.90;;
67065;SDS011;53978;43.846;25.952;2022-12-11T08:36:54;5.68;;;1.45;;
67065;SDS011;53978;43.846;25.952;2022-12-11T08:39:19;5.80;;;1.92;;
67065;SDS011;53978;43.846;25.952;2022-12-11T08:41:45;5.22;;;1.77;;
67065;SDS011;53978;43.846;25.952;2022-12-11T08:44:10;5.50;;;2.08;;
67065;SDS011;53978;43.846;25.952;2022-12-11T08:46:37;6.10;;;2.10;;
67065;SDS011;53978;43.846;25.952;2022-12-11T08:49:02;5.45;;;2.20;;
67065;SDS011;53978;43.846;25.952;2022-12-11T08:51:30;5.95;;;1.58;;
67065;SDS011;53978;43.846;25.952;2022-12-11T08:53:59;5.03;;;1.45;;
67065;SDS011;53978;43.846;25.952;2022-12-11T08:56:25;6.88;;;1.80;;
67065;SDS011;53978;43.846;25.952;2022-12-11T08:58:53;3.45;;;1.40;;
67065;SDS011;53978;43.846;25.952;2022-12-11T09:01:29;5.50;;;1.67;;
67065;SDS011;53978;43.846;25.952;2022-12-11T09:03:56;8.38;;;2.00;;
67065;SDS011;53978;43.846;25.952;2022-12-11T09:06:22;5.28;;;1.70;;
67065;SDS011;53978;43.846;25.952;2022-12-11T09:08:49;5.25;;;1.58;;
67065;SDS011;53978;43.846;25.952;2022-12-11T09:11:17;3.53;;;1.63;;
67065;SDS011;53978;43.846;25.952;2022-12-11T09:13:44;2.97;;;1.10;;
67065;SDS011;53978;43.846;25.952;2022-12-11T09:16:11;4.03;;;1.70;;
67065;SDS011;53978;43.846;25.952;2022-12-11T09:18:38;4.60;;;1.70;;
67065;SDS011;53978;43.846;25.952;2022-12-11T09:21:05;3.90;;;1.40;;
67065;SDS011;53978;43.846;25.952;2022-12-11T09:23:38;3.00;;;1.50;;
67065;SDS011;53978;43.846;25.952;2022-12-11T09:26:14;2.38;;;1.40;;
67065;SDS011;53978;43.846;25.952;2022-12-11T09:28:41;5.07;;;1.70;;
67065;SDS011;53978;43.846;25.952;2022-12-11T09:31:17;3.08;;;1.80;;
67065;SDS011;53978;43.846;25.952;2022-12-11T09:33:44;7.70;;;2.20;;
67065;SDS011;53978;43.846;25.952;2022-12-11T09:36:09;3.97;;;1.90;;
67065;SDS011;53978;43.846;25.952;2022-12-11T09:38:36;4.80;;;2.05;;
67065;SDS011;53978;43.846;25.952;2022-12-11T09:41:08;3.08;;;1.70;;
67065;SDS011;53978;43.846;25.952;2022-12-11T09:46:34;2.53;;;1.58;;
67065;SDS011;53978;43.846;25.952;2022-12-11T09:49:03;3.63;;;1.60;;
67065;SDS011;53978;43.846;25.952;2022-12-11T09:51:34;4.63;;;1.70;;
67065;SDS011;53978;43.846;25.952;2022-12-11T09:54:02;3.03;;;1.85;;
67065;SDS011;53978;43.846;25.952;2022-12-11T09:59:23;2.88;;;1.83;;
67065;SDS011;53978;43.846;25.952;2022-12-11T10:01:55;5.70;;;2.20;;
67065;SDS011;53978;43.846;25.952;2022-12-11T10:07:11;3.58;;;2.08;;
67065;SDS011;53978;43.846;25.952;2022-12-11T10:09:47;4.20;;;2.20;;
67065;SDS011;53978;43.846;25.952;2022-12-11T10:12:21;8.43;;;2.63;;
67065;SDS011;53978;43.846;25.952;2022-12-11T10:17:40;4.97;;;2.33;;
67065;SDS011;53978;43.846;25.952;2022-12-11T10:20:23;4.03;;;2.47;;
67065;SDS011;53978;43.846;25.952;2022-12-11T10:23:23;6.38;;;2.90;;
67065;SDS011;53978;43.846;25.952;2022-12-11T10:26:01;5.07;;;2.20;;
67065;SDS011;53978;43.846;25.952;2022-12-11T10:28:30;3.33;;;2.20;;
67065;SDS011;53978;43.846;25.952;2022-12-11T10:36:30;3.65;;;2.40;;
67065;SDS011;53978;43.846;25.952;2022-12-11T10:38:58;3.17;;;2.40;;
67065;SDS011;53978;43.846;25.952;2022-12-11T10:44:13;3.58;;;2.65;;
67065;SDS011;53978;43.846;25.952;2022-12-11T10:46:47;7.20;;;2.47;;
67065;SDS011;53978;43.846;25.952;2022-12-11T10:49:19;6.60;;;3.05;;
67065;SDS011;53978;43.846;25.952;2022-12-11T10:51:49;8.15;;;3.90;;
67065;SDS011;53978;43.846;25.952;2022-12-11T10:54:17;14.10;;;3.80;;
67065;SDS011;53978;43.846;25.952;2022-12-11T10:57:05;7.40;;;4.13;;
67065;SDS011;53978;43.846;25.952;2022-12-11T11:01:58;8.95;;;4.85;;
67065;SDS011;53978;43.846;25.952;2022-12-11T11:04:31;8.13;;;4.78;;
67065;SDS011;53978;43.846;25.952;2022-12-11T11:07:02;6.82;;;3.92;;
67065;SDS011;53978;43.846;25.952;2022-12-11T11:09:37;5.88;;;3.70;;
67065;SDS011;53978;43.846;25.952;2022-12-11T11:12:04;5.20;;;3.45;;
67065;SDS011;53978;43.846;25.952;2022-12-11T11:14:29;5.53;;;3.28;;
67065;SDS011;53978;43.846;25.952;2022-12-11T11:16:55;4.32;;;3.63;;
67065;SDS011;53978;43.846;25.952;2022-12-11T11:19:25;5.45;;;3.40;;
67065;SDS011;53978;43.846;25.952;2022-12-11T11:22:01;5.50;;;3.33;;
67065;SDS011;53978;43.846;25.952;2022-12-11T11:24:35;5.05;;;3.75;;
67065;SDS011;53978;43.846;25.952;2022-12-11T11:27:10;7.65;;;3.97;;
67065;SDS011;53978;43.846;25.952;2022-12-11T11:29:37;5.47;;;3.92;;
67065;SDS011;53978;43.846;25.952;2022-12-11T11:32:26;7.00;;;3.83;;
67065;SDS011;53978;43.846;25.952;2022-12-11T11:34:51;6.13;;;3.70;;
67065;SDS011;53978;43.846;25.952;2022-12-11T11:37:53;7.72;;;3.97;;
67065;SDS011;53978;43.846;25.952;2022-12-11T11:40:41;5.78;;;4.45;;
67065;SDS011;53978;43.846;25.952;2022-12-11T11:43:15;6.55;;;4.43;;
67065;SDS011;53978;43.846;25.952;2022-12-11T11:49:03;7.22;;;4.57;;
67065;SDS011;53978;43.846;25.952;2022-12-11T11:51:34;8.02;;;4.30;;
67065;SDS011;53978;43.846;25.952;2022-12-11T11:54:06;6.30;;;4.38;;
67065;SDS011;53978;43.846;25.952;2022-12-11T11:56:37;6.05;;;4.45;;
67065;SDS011;53978;43.846;25.952;2022-12-11T12:01:40;7.43;;;4.95;;
67065;SDS011;53978;43.846;25.952;2022-12-11T12:04:06;7.35;;;4.80;;
67065;SDS011;53978;43.846;25.952;2022-12-11T12:14:58;6.93;;;4.88;;
67065;SDS011;53978;43.846;25.952;2022-12-11T12:31:02;9.13;;;5.40;;
67065;SDS011;53978;43.846;25.952;2022-12-11T12:38:53;10.05;;;6.22;;
67065;SDS011;53978;43.846;25.952;2022-12-11T12:44:17;9.43;;;6.57;;
67065;SDS011;53978;43.846;25.952;2022-12-11T12:51:55;13.55;;;7.70;;
67065;SDS011;53978;43.846;25.952;2022-12-11T12:54:21;10.15;;;6.97;;
67065;SDS011;53978;43.846;25.952;2022-12-11T12:56:47;9.68;;;6.80;;
67065;SDS011;53978;43.846;25.952;2022-12-11T12:59:23;10.70;;;7.10;;
67065;SDS011;53978;43.846;25.952;2022-12-11T13:01:53;11.02;;;6.82;;
67065;SDS011;53978;43.846;25.952;2022-12-11T13:04:36;11.88;;;6.97;;
67065;SDS011;53978;43.846;25.952;2022-12-11T13:07:10;12.43;;;7.43;;
67065;SDS011;53978;43.846;25.952;2022-12-11T13:09:37;10.45;;;7.45;;
67065;SDS011;53978;43.846;25.952;2022-12-11T13:12:11;12.13;;;8.15;;
67065;SDS011;53978;43.846;25.952;2022-12-11T13:14:38;12.52;;;7.43;;
67065;SDS011;53978;43.846;25.952;2022-12-11T13:19:44;11.38;;;6.78;;
67065;SDS011;53978;43.846;25.952;2022-12-11T13:27:49;8.80;;;4.40;;
67065;SDS011;53978;43.846;25.952;2022-12-11T13:32:43;4.97;;;2.53;;
67065;SDS011;53978;43.846;25.952;2022-12-11T13:35:36;3.95;;;2.17;;
67065;SDS011;53978;43.846;25.952;2022-12-11T13:38:22;3.78;;;2.50;;
67065;SDS011;53978;43.846;25.952;2022-12-11T13:40:52;5.38;;;1.80;;
67065;SDS011;53978;43.846;25.952;2022-12-11T13:43:30;2.95;;;2.10;;
67065;SDS011;53978;43.846;25.952;2022-12-11T13:45:57;2.40;;;1.50;;
67065;SDS011;53978;43.846;25.952;2022-12-11T13:48:31;3.47;;;1.80;;
67065;SDS011;53978;43.846;25.952;2022-12-11T13:50:59;4.45;;;1.35;;
67065;SDS011;53978;43.846;25.952;2022-12-11T13:53:26;1.65;;;1.20;;
67065;SDS011;53978;43.846;25.952;2022-12-11T13:56:02;2.47;;;1.48;;
67065;SDS011;53978;43.846;25.952;2022-12-11T13:58:29;2.25;;;1.70;;
67065;SDS011;53978;43.846;25.952;2022-12-11T14:03:27;3.15;;;1.63;;
67065;SDS011;53978;43.846;25.952;2022-12-11T14:05:52;2.28;;;1.60;;
67065;SDS011;53978;43.846;25.952;2022-12-11T14:08:22;2.20;;;1.65;;
67065;SDS011;53978;43.846;25.952;2022-12-11T14:10:51;1.88;;;1.35;;
67065;SDS011;53978;43.846;25.952;2022-12-11T14:13:20;1.73;;;1.20;;
67065;SDS011;53978;43.846;25.952;2022-12-11T14:15:48;2.75;;;1.27;;
67065;SDS011;53978;43.846;25.952;2022-12-11T14:18:14;2.28;;;1.25;;
67065;SDS011;53978;43.846;25.952;2022-12-11T14:20:42;2.65;;;1.35;;
67065;SDS011;53978;43.846;25.952;2022-12-11T14:26:23;4.93;;;1.50;;
67065;SDS011;53978;43.846;25.952;2022-12-11T14:28:53;2.85;;;1.50;;
67065;SDS011;53978;43.846;25.952;2022-12-11T14:31:29;2.25;;;1.48;;
67065;SDS011;53978;43.846;25.952;2022-12-11T14:34:02;3.90;;;1.67;;
67065;SDS011;53978;43.846;25.952;2022-12-11T14:36:30;1.80;;;1.60;;
67065;SDS011;53978;43.846;25.952;2022-12-11T14:39:10;4.97;;;1.92;;
67065;SDS011;53978;43.846;25.952;2022-12-11T14:44:14;2.80;;;1.98;;
67065;SDS011;53978;43.846;25.952;2022-12-11T14:46:45;3.53;;;1.75;;
67065;SDS011;53978;43.846;25.952;2022-12-11T14:52:05;2.40;;;1.67;;
67065;SDS011;53978;43.846;25.952;2022-12-11T14:54:44;2.72;;;1.60;;
67065;SDS011;53978;43.846;25.952;2022-12-11T14:57:19;1.95;;;1.63;;
67065;SDS011;53978;43.846;25.952;2022-12-11T14:59:47;2.50;;;1.98;;
67065;SDS011;53978;43.846;25.952;2022-12-11T15:09:56;3.35;;;1.52;;
67065;SDS011;53978;43.846;25.952;2022-12-11T15:12:21;2.28;;;1.65;;
67065;SDS011;53978;43.846;25.952;2022-12-11T15:14:49;2.83;;;1.83;;
67065;SDS011;53978;43.846;25.952;2022-12-11T15:17:16;2.25;;;1.88;;
67065;SDS011;53978;43.846;25.952;2022-12-11T15:19:45;2.05;;;1.63;;
67065;SDS011;53978;43.846;25.952;2022-12-11T15:22:13;2.50;;;1.88;;
67065;SDS011;53978;43.846;25.952;2022-12-11T15:24:39;6.28;;;1.88;;
67065;SDS011;53978;43.846;25.952;2022-12-11T15:29:59;2.10;;;1.90;;
67065;SDS011;53978;43.846;25.952;2022-12-11T15:32:25;4.30;;;2.10;;
67065;SDS011;53978;43.846;25.952;2022-12-11T15:34:52;2.97;;;2.08;;
67065;SDS011;53978;43.846;25.952;2022-12-11T15:37:32;2.38;;;1.90;;
67065;SDS011;53978;43.846;25.952;2022-12-11T15:40:00;1.85;;;1.65;;
67065;SDS011;53978;43.846;25.952;2022-12-11T15:42:36;5.88;;;2.20;;
67065;SDS011;53978;43.846;25.952;2022-12-11T15:45:06;2.47;;;1.98;;
67065;SDS011;53978;43.846;25.952;2022-12-11T15:47:32;1.95;;;1.50;;
67065;SDS011;53978;43.846;25.952;2022-12-11T15:50:06;2.97;;;1.70;;
67065;SDS011;53978;43.846;25.952;2022-12-11T15:52:37;2.85;;;1.90;;
67065;SDS011;53978;43.846;25.952;2022-12-11T15:55:02;3.92;;;1.70;;
67065;SDS011;53978;43.846;25.952;2022-12-11T15:57:28;2.20;;;1.55;;
67065;SDS011;53978;43.846;25.952;2022-12-11T15:59:54;3.22;;;1.75;;
67065;SDS011;53978;43.846;25.952;2022-12-11T16:02:20;3.08;;;1.80;;
67065;SDS011;53978;43.846;25.952;2022-12-11T16:04:45;2.50;;;1.67;;
67065;SDS011;53978;43.846;25.952;2022-12-11T16:07:12;5.30;;;1.88;;
67065;SDS011;53978;43.846;25.952;2022-12-11T16:09:45;2.45;;;1.63;;
67065;SDS011;53978;43.846;25.952;2022-12-11T16:12:11;2.10;;;1.50;;
67065;SDS011;53978;43.846;25.952;2022-12-11T16:14:38;2.42;;;1.88;;
67065;SDS011;53978;43.846;25.952;2022-12-11T16:17:05;2.60;;;1.60;;
67065;SDS011;53978;43.846;25.952;2022-12-11T16:19:31;1.83;;;1.52;;
67065;SDS011;53978;43.846;25.952;2022-12-11T16:21:57;1.33;;;1.13;;
67065;SDS011;53978;43.846;25.952;2022-12-11T16:24:23;1.75;;;1.40;;
67065;SDS011;53978;43.846;25.952;2022-12-11T16:26:48;1.80;;;1.55;;
67065;SDS011;53978;43.846;25.952;2022-12-11T16:29:14;1.95;;;1.30;;
67065;SDS011;53978;43.846;25.952;2022-12-11T16:31:39;1.33;;;1.20;;
67065;SDS011;53978;43.846;25.952;2022-12-11T16:34:04;1.80;;;1.40;;
67065;SDS011;53978;43.846;25.952;2022-12-11T16:36:30;1.88;;;1.60;;
67065;SDS011;53978;43.846;25.952;2022-12-11T16:38:56;1.55;;;1.30;;
67065;SDS011;53978;43.846;25.952;2022-12-11T16:41:24;1.73;;;1.60;;
67065;SDS011;53978;43.846;25.952;2022-12-11T16:43:52;1.58;;;1.48;;
67065;SDS011;53978;43.846;25.952;2022-12-11T16:46:18;2.67;;;1.40;;
67065;SDS011;53978;43.846;25.952;2022-12-11T16:48:47;1.33;;;1.23;;
67065;SDS011;53978;43.846;25.952;2022-12-11T16:51:13;2.25;;;1.50;;
67065;SDS011;53978;43.846;25.952;2022-12-11T16:53:39;2.60;;;1.67;;
67065;SDS011;53978;43.846;25.952;2022-12-11T16:56:05;2.65;;;1.50;;
67065;SDS011;53978;43.846;25.952;2022-12-11T16:58:31;3.85;;;1.55;;
67065;SDS011;53978;43.846;25.952;2022-12-11T17:00:56;2.33;;;1.40;;
67065;SDS011;53978;43.846;25.952;2022-12-11T17:03:32;2.08;;;1.75;;
67065;SDS011;53978;43.846;25.952;2022-12-11T17:05:57;3.20;;;1.60;;
67065;SDS011;53978;43.846;25.952;2022-12-11T17:08:24;3.90;;;1.60;;
67065;SDS011;53978;43.846;25.952;2022-12-11T17:10:50;2.55;;;1.70;;
67065;SDS011;53978;43.846;25.952;2022-12-11T17:13:18;2.97;;;1.75;;
67065;SDS011;53978;43.846;25.952;2022-12-11T17:15:44;2.75;;;1.70;;
67065;SDS011;53978;43.846;25.952;2022-12-11T17:18:10;2.28;;;1.80;;
67065;SDS011;53978;43.846;25.952;2022-12-11T17:20:39;3.60;;;2.00;;
67065;SDS011;53978;43.846;25.952;2022-12-11T17:23:06;2.83;;;1.75;;
67065;SDS011;53978;43.846;25.952;2022-12-11T17:25:34;1.90;;;1.60;;
67065;SDS011;53978;43.846;25.952;2022-12-11T17:27:59;1.73;;;1.58;;
67065;SDS011;53978;43.846;25.952;2022-12-11T17:30:25;2.38;;;1.40;;
67065;SDS011;53978;43.846;25.952;2022-12-11T17:32:50;2.53;;;1.65;;
67065;SDS011;53978;43.846;25.952;2022-12-11T17:35:16;3.03;;;1.90;;
67065;SDS011;53978;43.846;25.952;2022-12-11T17:37:41;1.83;;;1.42;;
67065;SDS011;53978;43.846;25.952;2022-12-11T17:40:07;1.90;;;1.30;;
67065;SDS011;53978;43.846;25.952;2022-12-11T17:42:32;5.70;;;1.70;;
67065;SDS011;53978;43.846;25.952;2022-12-11T17:44:58;1.83;;;1.60;;
67065;SDS011;53978;43.846;25.952;2022-12-11T17:47:23;3.10;;;2.00;;
67065;SDS011;53978;43.846;25.952;2022-12-11T17:49:49;3.45;;;1.70;;
67065;SDS011;53978;43.846;25.952;2022-12-11T17:52:14;2.70;;;1.63;;
67065;SDS011;53978;43.846;25.952;2022-12-11T17:54:40;2.50;;;1.65;;
67065;SDS011;53978;43.846;25.952;2022-12-11T17:57:05;1.40;;;1.25;;
67065;SDS011;53978;43.846;25.952;2022-12-11T17:59:31;2.78;;;1.83;;
67065;SDS011;53978;43.846;25.952;2022-12-11T18:01:56;4.18;;;1.70;;
67065;SDS011;53978;43.846;25.952;2022-12-11T18:04:22;2.40;;;1.60;;
67065;SDS011;53978;43.846;25.952;2022-12-11T18:06:47;2.05;;;1.70;;
67065;SDS011;53978;43.846;25.952;2022-12-11T18:09:13;1.92;;;1.63;;
67065;SDS011;53978;43.846;25.952;2022-12-11T18:11:38;1.90;;;1.70;;
67065;SDS011;53978;43.846;25.952;2022-12-11T18:14:04;2.13;;;1.88;;
67065;SDS011;53978;43.846;25.952;2022-12-11T18:16:34;1.92;;;1.75;;
67065;SDS011;53978;43.846;25.952;2022-12-11T18:19:02;2.33;;;1.92;;
67065;SDS011;53978;43.846;25.952;2022-12-11T18:21:29;3.45;;;1.92;;
67065;SDS011;53978;43.846;25.952;2022-12-11T18:23:58;2.20;;;2.00;;
67065;SDS011;53978;43.846;25.952;2022-12-11T18:26:25;2.05;;;1.75;;
67065;SDS011;53978;43.846;25.952;2022-12-11T18:28:51;3.38;;;2.10;;
67065;SDS011;53978;43.846;25.952;2022-12-11T18:31:17;2.83;;;1.92;;
67065;SDS011;53978;43.846;25.952;2022-12-11T18:33:43;2.28;;;1.95;;
67065;SDS011;53978;43.846;25.952;2022-12-11T18:36:11;2.55;;;1.98;;
67065;SDS011;53978;43.846;25.952;2022-12-11T18:38:37;2.53;;;1.98;;
67065;SDS011;53978;43.846;25.952;2022-12-11T18:41:04;2.78;;;1.88;;
67065;SDS011;53978;43.846;25.952;2022-12-11T18:43:31;2.45;;;2.05;;
67065;SDS011;53978;43.846;25.952;2022-12-11T18:45:56;4.35;;;2.75;;
67065;SDS011;53978;43.846;25.952;2022-12-11T18:48:22;2.53;;;2.03;;
67065;SDS011;53978;43.846;25.952;2022-12-11T18:50:48;3.13;;;2.28;;
67065;SDS011;53978;43.846;25.952;2022-12-11T18:53:14;3.80;;;2.42;;
67065;SDS011;53978;43.846;25.952;2022-12-11T18:55:41;3.38;;;2.55;;
67065;SDS011;53978;43.846;25.952;2022-12-11T18:58:07;3.25;;;2.22;;
67065;SDS011;53978;43.846;25.952;2022-12-11T19:00:33;3.17;;;2.10;;
67065;SDS011;53978;43.846;25.952;2022-12-11T19:03:01;2.20;;;1.92;;
67065;SDS011;53978;43.846;25.952;2022-12-11T19:05:27;3.28;;;2.40;;
67065;SDS011;53978;43.846;25.952;2022-12-11T19:07:53;3.38;;;2.10;;
67065;SDS011;53978;43.846;25.952;2022-12-11T19:10:18;3.45;;;2.60;;
67065;SDS011;53978;43.846;25.952;2022-12-11T19:12:44;3.47;;;2.50;;
67065;SDS011;53978;43.846;25.952;2022-12-11T19:15:10;3.05;;;2.35;;
67065;SDS011;53978;43.846;25.952;2022-12-11T19:17:35;3.03;;;1.83;;
67065;SDS011;53978;43.846;25.952;2022-12-11T19:20:02;3.95;;;2.47;;
67065;SDS011;53978;43.846;25.952;2022-12-11T19:22:29;3.65;;;2.30;;
67065;SDS011;53978;43.846;25.952;2022-12-11T19:24:59;2.92;;;2.00;;
67065;SDS011;53978;43.846;25.952;2022-12-11T19:27:25;2.70;;;2.25;;
67065;SDS011;53978;43.846;25.952;2022-12-11T19:29:50;2.30;;;2.10;;
67065;SDS011;53978;43.846;25.952;2022-12-11T19:32:16;3.10;;;2.17;;
67065;SDS011;53978;43.846;25.952;2022-12-11T19:34:41;4.28;;;2.42;;
67065;SDS011;53978;43.846;25.952;2022-12-11T19:37:06;2.85;;;2.42;;
67065;SDS011;53978;43.846;25.952;2022-12-11T19:39:32;2.45;;;2.00;;
67065;SDS011;53978;43.846;25.952;2022-12-11T19:42:00;2.88;;;2.40;;
67065;SDS011;53978;43.846;25.952;2022-12-11T19:44:28;7.13;;;2.22;;
67065;SDS011;53978;43.846;25.952;2022-12-11T19:46:54;3.55;;;2.60;;
67065;SDS011;53978;43.846;25.952;2022-12-11T19:49:19;3.67;;;2.70;;
67065;SDS011;53978;43.846;25.952;2022-12-11T19:51:45;5.30;;;2.40;;
67065;SDS011;53978;43.846;25.952;2022-12-11T19:54:14;2.78;;;2.40;;
67065;SDS011;53978;43.846;25.952;2022-12-11T19:56:41;2.92;;;2.22;;
67065;SDS011;53978;43.846;25.952;2022-12-11T19:59:07;6.97;;;2.38;;
67065;SDS011;53978;43.846;25.952;2022-12-11T20:01:38;5.15;;;2.63;;
67065;SDS011;53978;43.846;25.952;2022-12-11T20:04:05;4.32;;;2.70;;
67065;SDS011;53978;43.846;25.952;2022-12-11T20:06:34;3.70;;;2.80;;
67065;SDS011;53978;43.846;25.952;2022-12-11T20:09:01;5.05;;;2.60;;
67065;SDS011;53978;43.846;25.952;2022-12-11T20:11:27;3.53;;;2.55;;
67065;SDS011;53978;43.846;25.952;2022-12-11T20:13:53;3.75;;;2.78;;
67065;SDS011;53978;43.846;25.952;2022-12-11T20:16:23;6.45;;;3.00;;
67065;SDS011;53978;43.846;25.952;2022-12-11T20:18:49;5.28;;;3.40;;
67065;SDS011;53978;43.846;25.952;2022-12-11T20:21:16;4.38;;;2.90;;
67065;SDS011;53978;43.846;25.952;2022-12-11T20:23:42;4.80;;;2.92;;
67065;SDS011;53978;43.846;25.952;2022-12-11T20:26:12;6.28;;;3.08;;
67065;SDS011;53978;43.846;25.952;2022-12-11T20:28:42;3.40;;;2.70;;
67065;SDS011;53978;43.846;25.952;2022-12-11T20:31:12;6.50;;;3.13;;
67065;SDS011;53978;43.846;25.952;2022-12-11T20:33:39;3.95;;;2.75;;